Divide, Illinois
Current Conditions -  °F | °C
As of 1:15 PM on Sunday 23 Nov 2014 (Local Time) from KMVN Reporting Station
Overcast Overcast  
Wind Chill: 54°   Ceiling: 1300
Heat Index: 54°   Visibility: 8mi
Dew Point: 46°   Wind: 8mph
Humidity: 77%   Direction: 140°SE
Pressure: 29.53"   Gusts: NA
Location:  38.4295°N, 88.8612°W
Report Text: KMVN 231915Z AUTO 14007KT 8SM OVC013 12/08 A2953 RMK AO1
Loading
Personal Weather Stations






























Interactive Weather Map New forecast layout! Learn more

10-Day Weather Forecast

Advertisements
Track Severe Weather on mobile